Time;durP1;ratioP1;P1;durP2;ratioP2;P2;SDS_P1;SDS_P2;PMS_P1;PMS_P2;Temp;Humidity;BMP_temperature;BMP_pressure;BME280_temperature;BME280_humidity;BME280_pressure;Samples;Min_cycle;Max_cycle;Signal;HPM_P1;HPM_P2
2021/06/30 00:01:49;;;;;;;1.77;1.20;;;;;8.10;101586.00;;;;5089037;28;20368;-78
2021/06/30 00:04:16;;;;;;;1.95;1.20;;;;;8.10;101575.00;;;;5088246;28;20119;-77
2021/06/30 00:06:42;;;;;;;2.65;1.20;;;;;8.10;101589.00;;;;5088989;28;20043;-78
2021/06/30 00:09:09;;;;;;;3.10;1.45;;;;;8.10;101604.00;;;;5088634;28;20035;-77
2021/06/30 00:11:36;;;;;;;2.08;1.27;;;;;8.10;101604.00;;;;5088424;28;20024;-77
2021/06/30 00:14:02;;;;;;;4.20;1.35;;;;;8.10;101584.00;;;;5088092;28;20024;-77
2021/06/30 00:16:33;;;;;;;1.63;1.23;;;;;8.10;101628.00;;;;5088620;28;20361;-77
2021/06/30 00:19:03;;;;;;;2.45;1.48;;;;;8.00;101605.00;;;;5088243;28;20036;-78
2021/06/30 00:21:30;;;;;;;1.87;1.40;;;;;8.00;101608.00;;;;5087794;28;20066;-78
2021/06/30 00:23:57;;;;;;;4.00;1.35;;;;;8.10;101600.00;;;;5087863;28;20031;-78
2021/06/30 00:26:23;;;;;;;3.50;1.70;;;;;8.10;101609.00;;;;5087542;28;20106;-75
2021/06/30 00:28:50;;;;;;;3.15;1.42;;;;;8.00;101638.00;;;;5087259;28;20035;-75
2021/06/30 00:31:18;;;;;;;5.43;2.15;;;;;8.00;101599.00;;;;5087094;28;20584;-74
2021/06/30 00:33:45;;;;;;;4.70;1.60;;;;;8.00;101618.00;;;;5087071;28;20024;-75
2021/06/30 00:36:12;;;;;;;2.40;1.40;;;;;8.00;101629.00;;;;5086772;28;20040;-76
2021/06/30 00:38:39;;;;;;;2.33;1.50;;;;;8.00;101615.00;;;;5087014;28;20032;-78
2021/06/30 00:41:06;;;;;;;3.17;1.98;;;;;8.00;101632.00;;;;5087387;28;20077;-76
2021/06/30 00:43:32;;;;;;;2.53;1.70;;;;;8.00;101612.00;;;;5087448;28;20024;-77
2021/06/30 00:45:59;;;;;;;4.07;1.77;;;;;8.00;101599.00;;;;5087199;28;20044;-77
2021/06/30 00:48:25;;;;;;;3.88;1.65;;;;;7.90;101632.00;;;;5090229;28;20085;-78
2021/06/30 00:50:52;;;;;;;7.70;1.67;;;;;8.00;101614.00;;;;5093219;28;20046;-78
2021/06/30 00:53:19;;;;;;;2.58;1.60;;;;;8.00;101621.00;;;;5072301;28;20043;-78
2021/06/30 00:55:52;;;;;;;5.93;1.70;;;;;8.00;101630.00;;;;5087459;28;20069;-74
2021/06/30 00:58:19;;;;;;;3.75;1.77;;;;;8.00;101599.00;;;;5085416;28;20067;-75
2021/06/30 01:00:49;;;;;;;1.63;1.08;;;;;8.00;101628.00;;;;5086470;28;20043;-80
2021/06/30 01:03:17;;;;;;;3.63;1.38;;;;;8.00;101607.00;;;;5087430;28;20032;-76
2021/06/30 01:05:44;;;;;;;4.80;1.67;;;;;8.00;101606.00;;;;5086935;28;20039;-77
2021/06/30 01:08:11;;;;;;;5.28;1.63;;;;;8.00;101607.00;;;;5086510;28;20019;-77
2021/06/30 01:10:37;;;;;;;3.45;1.77;;;;;8.00;101601.00;;;;5069389;28;20024;-77
2021/06/30 01:13:05;;;;;;;1.75;1.08;;;;;8.00;101593.00;;;;5087260;28;20028;-78
2021/06/30 01:15:43;;;;;;;2.85;1.50;;;;;8.00;101642.00;;;;5087505;28;20073;-77
2021/06/30 01:18:10;;;;;;;3.45;1.30;;;;;8.00;101616.00;;;;5087609;28;20031;-77
2021/06/30 01:20:37;;;;;;;2.42;1.50;;;;;8.00;101614.00;;;;5087276;28;20135;-78
2021/06/30 01:23:10;;;;;;;5.22;1.45;;;;;8.00;101632.00;;;;5087147;28;20422;-78
2021/06/30 01:25:37;;;;;;;1.33;1.23;;;;;8.00;101608.00;;;;5068421;28;20036;-78
2021/06/30 01:28:04;;;;;;;2.08;1.25;;;;;8.00;101630.00;;;;5087035;28;20578;-81
2021/06/30 01:30:31;;;;;;;1.88;1.05;;;;;8.00;101636.00;;;;5087315;28;20117;-77
2021/06/30 01:32:58;;;;;;;1.98;1.02;;;;;7.90;101641.00;;;;5087277;28;20028;-77
2021/06/30 01:35:25;;;;;;;1.98;1.17;;;;;8.00;101625.00;;;;5087409;28;20103;-77
2021/06/30 01:37:53;;;;;;;1.23;1.10;;;;;8.00;101640.00;;;;5087186;28;20550;-77
2021/06/30 01:40:20;;;;;;;2.80;1.25;;;;;8.00;101633.00;;;;5086928;28;20023;-75
2021/06/30 01:42:49;;;;;;;2.97;1.40;;;;;8.00;101621.00;;;;5086886;28;20046;-77
2021/06/30 01:45:16;;;;;;;1.65;1.10;;;;;8.00;101598.00;;;;5086629;28;20038;-82
2021/06/30 01:47:43;;;;;;;2.85;1.15;;;;;8.00;101618.00;;;;5087323;28;20028;-77
2021/06/30 01:50:11;;;;;;;1.40;1.00;;;;;7.90;101605.00;;;;5087049;28;20046;-78
2021/06/30 01:52:38;;;;;;;1.58;1.10;;;;;7.90;101601.00;;;;5086690;28;20055;-76
2021/06/30 01:55:06;;;;;;;1.50;1.30;;;;;7.90;101604.00;;;;5086445;28;20632;-76
2021/06/30 01:57:33;;;;;;;11.52;1.35;;;;;7.90;101631.00;;;;5086524;28;20028;-77
2021/06/30 01:59:59;;;;;;;3.85;1.65;;;;;7.90;101631.00;;;;5086773;28;20040;-77
2021/06/30 02:02:28;;;;;;;3.40;1.58;;;;;7.90;101634.00;;;;5088120;28;20779;-77
2021/06/30 02:05:11;;;;;;;3.22;1.05;;;;;7.90;101634.00;;;;5090947;28;20042;-79
2021/06/30 02:07:38;;;;;;;1.98;1.20;;;;;7.90;101616.00;;;;5090761;28;20055;-79
2021/06/30 02:10:08;;;;;;;2.17;1.10;;;;;7.90;101600.00;;;;5090756;28;20403;-77
2021/06/30 02:12:35;;;;;;;1.83;0.93;;;;;7.90;101612.00;;;;5090897;28;20491;-78
2021/06/30 02:15:05;;;;;;;1.20;1.10;;;;;7.90;101620.00;;;;5090650;28;20035;-77
2021/06/30 02:17:32;;;;;;;2.15;1.17;;;;;7.80;101615.00;;;;5090661;28;20032;-79
2021/06/30 02:19:59;;;;;;;1.83;0.95;;;;;7.90;101639.00;;;;5091119;28;20431;-77
2021/06/30 02:22:26;;;;;;;2.03;1.08;;;;;7.90;101651.00;;;;5090845;28;20088;-78
2021/06/30 02:24:56;;;;;;;1.95;0.93;;;;;7.80;101639.00;;;;5090387;28;20081;-77
2021/06/30 02:27:23;;;;;;;3.58;1.17;;;;;7.80;101634.00;;;;5090680;28;20077;-78
2021/06/30 02:29:49;;;;;;;1.42;0.80;;;;;7.80;101634.00;;;;5072296;28;20491;-77
2021/06/30 02:32:16;;;;;;;1.10;0.85;;;;;7.80;101638.00;;;;5090299;28;20912;-78
2021/06/30 02:34:42;;;;;;;1.58;1.00;;;;;7.80;101613.00;;;;5090496;28;20032;-77
2021/06/30 02:37:09;;;;;;;1.55;1.00;;;;;7.80;101620.00;;;;5090193;28;20031;-78
2021/06/30 02:39:35;;;;;;;3.28;1.20;;;;;7.80;101630.00;;;;5091002;28;20024;-79
2021/06/30 02:42:03;;;;;;;1.83;1.20;;;;;7.80;101650.00;;;;5090196;28;20384;-77
2021/06/30 02:44:29;;;;;;;2.55;1.10;;;;;7.80;101663.00;;;;5089908;28;20484;-77
2021/06/30 02:46:56;;;;;;;3.85;1.20;;;;;7.80;101660.00;;;;5090278;28;20024;-78
2021/06/30 02:49:23;;;;;;;1.35;1.00;;;;;7.80;101643.00;;;;5090074;28;20382;-77
2021/06/30 02:51:49;;;;;;;3.30;1.13;;;;;7.80;101664.00;;;;5090118;28;20082;-76
2021/06/30 02:54:16;;;;;;;2.03;1.50;;;;;7.80;101649.00;;;;5090377;28;20033;-75
2021/06/30 02:56:42;;;;;;;2.05;1.40;;;;;7.80;101641.00;;;;5089918;28;20103;-76
2021/06/30 02:59:09;;;;;;;2.95;1.30;;;;;7.80;101660.00;;;;5089661;28;20540;-77
2021/06/30 03:01:36;;;;;;;4.95;1.10;;;;;7.80;101660.00;;;;5089966;28;20368;-77
2021/06/30 03:04:02;;;;;;;3.05;1.17;;;;;7.80;101635.00;;;;5090123;28;20494;-76
2021/06/30 03:06:29;;;;;;;1.52;1.10;;;;;7.80;101647.00;;;;5089690;28;20024;-76
2021/06/30 03:08:55;;;;;;;1.98;0.93;;;;;7.80;101622.00;;;;5089477;28;20028;-77
2021/06/30 03:11:23;;;;;;;1.05;0.90;;;;;7.80;101624.00;;;;5089852;28;20035;-77
2021/06/30 03:13:50;;;;;;;1.88;0.90;;;;;7.80;101645.00;;;;5088800;28;20036;-77
2021/06/30 03:16:16;;;;;;;1.25;0.70;;;;;7.80;101622.00;;;;5089070;28;20060;-77
2021/06/30 03:18:43;;;;;;;2.55;0.80;;;;;7.80;101624.00;;;;5089985;28;20407;-77
2021/06/30 03:21:10;;;;;;;1.83;0.70;;;;;7.80;101658.00;;;;5090394;28;20395;-77
2021/06/30 03:23:37;;;;;;;0.85;0.80;;;;;7.80;101632.00;;;;5089473;28;20028;-77
2021/06/30 03:26:04;;;;;;;0.93;0.75;;;;;7.80;101644.00;;;;5089221;28;20985;-77
2021/06/30 03:28:30;;;;;;;1.67;0.90;;;;;7.80;101664.00;;;;5089241;28;20024;-77
2021/06/30 03:30:57;;;;;;;4.00;1.02;;;;;7.80;101660.00;;;;5089248;28;20028;-77
2021/06/30 03:33:24;;;;;;;0.73;0.70;;;;;7.80;101636.00;;;;5088970;28;20830;-78
2021/06/30 03:35:50;;;;;;;1.90;0.98;;;;;7.70;101648.00;;;;5089164;28;20031;-76
2021/06/30 03:38:17;;;;;;;2.70;0.88;;;;;7.70;101664.00;;;;5089310;28;20483;-77
2021/06/30 03:40:43;;;;;;;0.95;0.95;;;;;7.70;101652.00;;;;5089007;28;20028;-76
2021/06/30 03:43:10;;;;;;;4.75;1.40;;;;;7.70;101630.00;;;;5088958;28;20032;-77
2021/06/30 03:45:36;;;;;;;2.08;1.08;;;;;7.70;101645.00;;;;5089748;28;20517;-78
2021/06/30 03:48:03;;;;;;;1.92;1.00;;;;;7.70;101663.00;;;;5089122;28;20481;-77
2021/06/30 03:50:30;;;;;;;2.13;0.95;;;;;7.70;101626.00;;;;5088721;28;20028;-77
2021/06/30 03:52:57;;;;;;;1.10;0.77;;;;;7.70;101646.00;;;;5088844;28;20032;-77
2021/06/30 03:55:23;;;;;;;3.05;1.00;;;;;7.60;101628.00;;;;5088508;28;20031;-76
2021/06/30 03:57:50;;;;;;;1.17;0.82;;;;;7.60;101641.00;;;;5089112;28;20032;-77
2021/06/30 04:00:17;;;;;;;1.63;0.93;;;;;7.60;101664.00;;;;5088152;28;20097;-77
2021/06/30 04:02:43;;;;;;;2.72;1.05;;;;;7.60;101650.00;;;;5089182;28;20060;-76
2021/06/30 04:05:10;;;;;;;1.88;0.95;;;;;7.70;101651.00;;;;5088480;28;20062;-79
2021/06/30 04:07:37;;;;;;;1.02;0.80;;;;;7.70;101666.00;;;;5088476;28;20482;-76
2021/06/30 04:10:07;;;;;;;2.97;0.93;;;;;7.70;101677.00;;;;5088538;28;20024;-77
2021/06/30 04:12:34;;;;;;;1.85;0.80;;;;;7.60;101664.00;;;;5088777;28;20024;-77
2021/06/30 04:15:01;;;;;;;3.47;1.20;;;;;7.60;101663.00;;;;5088823;28;20028;-76
2021/06/30 04:17:28;;;;;;;2.30;0.98;;;;;7.60;101657.00;;;;5088930;28;20020;-77
2021/06/30 04:19:54;;;;;;;2.58;1.10;;;;;7.60;101665.00;;;;5088294;28;20028;-78
2021/06/30 04:22:21;;;;;;;3.70;1.00;;;;;7.60;101671.00;;;;5087882;28;20522;-77
2021/06/30 04:24:47;;;;;;;3.22;0.90;;;;;7.50;101650.00;;;;5069856;28;20106;-76
2021/06/30 04:27:14;;;;;;;1.80;0.90;;;;;7.50;101671.00;;;;5087286;28;20032;-79
2021/06/30 04:29:41;;;;;;;2.75;1.00;;;;;7.50;101654.00;;;;5088398;28;20078;-76
2021/06/30 04:32:07;;;;;;;2.25;1.05;;;;;7.50;101657.00;;;;5087749;28;20103;-76
2021/06/30 04:34:34;;;;;;;1.58;0.80;;;;;7.50;101656.00;;;;5088089;28;20030;-77
2021/06/30 04:37:00;;;;;;;3.38;1.10;;;;;7.40;101636.00;;;;5088076;28;20394;-76
2021/06/30 04:39:27;;;;;;;1.83;1.10;;;;;7.40;101647.00;;;;5088152;28;20028;-77
2021/06/30 04:41:54;;;;;;;2.97;1.23;;;;;7.40;101639.00;;;;5088260;28;21039;-77
2021/06/30 04:44:21;;;;;;;1.48;0.90;;;;;7.40;101630.00;;;;5087763;28;20028;-77
2021/06/30 04:46:47;;;;;;;1.77;0.90;;;;;7.40;101655.00;;;;5087821;28;20034;-77
2021/06/30 04:49:14;;;;;;;3.20;1.00;;;;;7.40;101668.00;;;;5087810;28;20343;-77
2021/06/30 04:51:42;;;;;;;1.90;0.82;;;;;7.30;101663.00;;;;5087502;28;20097;-77
2021/06/30 04:54:08;;;;;;;6.65;1.05;;;;;7.30;101646.00;;;;5087682;28;20051;-77
2021/06/30 04:56:41;;;;;;;2.42;1.20;;;;;7.30;101643.00;;;;5088028;28;20028;-76
2021/06/30 04:59:08;;;;;;;2.10;0.82;;;;;7.30;101640.00;;;;5087717;28;20395;-76
2021/06/30 05:01:36;;;;;;;1.67;0.93;;;;;7.20;101658.00;;;;5087515;28;20031;-76
2021/06/30 05:04:06;;;;;;;1.98;1.08;;;;;7.20;101652.00;;;;5087411;28;20031;-77
2021/06/30 05:06:34;;;;;;;5.60;1.00;;;;;7.20;101657.00;;;;5087566;28;20400;-77
2021/06/30 05:09:01;;;;;;;3.80;1.30;;;;;7.30;101669.00;;;;5087556;28;20056;-76
2021/06/30 05:11:29;;;;;;;1.95;0.93;;;;;7.20;101670.00;;;;5087319;28;20035;-77
2021/06/30 05:13:56;;;;;;;1.65;0.85;;;;;7.20;101667.00;;;;5087235;28;20031;-77
2021/06/30 05:16:24;;;;;;;2.15;1.10;;;;;7.10;101634.00;;;;5086811;28;20551;-78
2021/06/30 05:18:51;;;;;;;1.20;1.08;;;;;7.10;101650.00;;;;5086975;28;20036;-78
2021/06/30 05:21:19;;;;;;;1.52;0.95;;;;;7.10;101622.00;;;;5087595;28;20060;-78
2021/06/30 05:23:46;;;;;;;3.70;1.05;;;;;7.00;101657.00;;;;5087225;28;20447;-77
2021/06/30 05:26:12;;;;;;;2.28;1.20;;;;;7.00;101641.00;;;;5087090;28;20387;-79
2021/06/30 05:28:40;;;;;;;1.55;1.00;;;;;7.00;101673.00;;;;5087817;28;20028;-79
2021/06/30 05:31:06;;;;;;;1.70;1.10;;;;;6.90;101674.00;;;;5068868;28;20040;-77
2021/06/30 05:33:33;;;;;;;1.55;1.10;;;;;6.90;101672.00;;;;5086871;28;20073;-76
2021/06/30 05:36:00;;;;;;;1.95;1.10;;;;;6.90;101663.00;;;;5087256;28;20585;-78
2021/06/30 05:38:26;;;;;;;2.05;0.90;;;;;6.90;101672.00;;;;5086529;28;20153;-76
2021/06/30 05:40:53;;;;;;;2.47;1.10;;;;;6.90;101650.00;;;;5086782;28;20039;-76
2021/06/30 05:43:19;;;;;;;4.63;0.90;;;;;6.90;101637.00;;;;5086675;28;20020;-76
2021/06/30 05:45:47;;;;;;;1.27;1.08;;;;;6.90;101659.00;;;;5087028;28;20036;-77
2021/06/30 05:48:14;;;;;;;4.18;1.00;;;;;6.90;101643.00;;;;5086495;28;20024;-76
2021/06/30 05:50:41;;;;;;;3.90;1.25;;;;;7.00;101648.00;;;;5086884;28;20037;-77
2021/06/30 05:53:08;;;;;;;1.45;0.95;;;;;7.10;101633.00;;;;5087067;28;20024;-76
2021/06/30 05:55:34;;;;;;;2.45;1.08;;;;;7.10;101661.00;;;;5087097;28;20390;-77
2021/06/30 05:58:01;;;;;;;3.28;1.02;;;;;7.10;101641.00;;;;5087197;28;20035;-76
2021/06/30 06:00:27;;;;;;;1.52;1.10;;;;;7.10;101637.00;;;;5086934;28;20052;-75
2021/06/30 06:02:54;;;;;;;2.28;1.00;;;;;7.20;101621.00;;;;5086937;28;20068;-77
2021/06/30 06:05:21;;;;;;;2.92;0.90;;;;;7.20;101659.00;;;;5086732;28;20060;-77
2021/06/30 06:07:47;;;;;;;3.70;1.10;;;;;7.20;101634.00;;;;5086794;28;20797;-75
2021/06/30 06:10:14;;;;;;;1.75;0.95;;;;;7.20;101628.00;;;;5086608;28;20074;-76
2021/06/30 06:12:41;;;;;;;2.13;0.73;;;;;7.20;101650.00;;;;5086518;28;20059;-76
2021/06/30 06:15:10;;;;;;;4.53;1.05;;;;;7.20;101626.00;;;;5086576;28;20028;-76
2021/06/30 06:17:38;;;;;;;1.52;0.90;;;;;7.20;101652.00;;;;5086680;28;20071;-76
2021/06/30 06:20:09;;;;;;;1.83;0.90;;;;;7.20;101629.00;;;;5086835;28;20031;-76
2021/06/30 06:22:36;;;;;;;2.22;1.05;;;;;7.20;101629.00;;;;5086353;28;20069;-77
2021/06/30 06:25:07;;;;;;;2.75;0.90;;;;;7.20;101612.00;;;;5086361;28;20036;-79
2021/06/30 06:27:35;;;;;;;0.87;0.83;;;;;7.20;101651.00;;;;5086684;28;20062;-78
2021/06/30 06:30:01;;;;;;;1.90;1.13;;;;;7.20;101639.00;;;;5086700;28;20453;-76
2021/06/30 06:32:28;;;;;;;2.50;0.68;;;;;7.20;101660.00;;;;5086661;28;20036;-77
2021/06/30 06:34:55;;;;;;;2.97;0.77;;;;;7.30;101666.00;;;;5086567;28;20073;-77
2021/06/30 06:37:21;;;;;;;2.35;0.90;;;;;7.30;101665.00;;;;5093542;28;20063;-76
2021/06/30 06:39:48;;;;;;;1.35;0.73;;;;;7.30;101661.00;;;;5093157;28;20032;-76
2021/06/30 06:42:15;;;;;;;3.70;0.77;;;;;7.30;101651.00;;;;5089921;28;20487;-76
2021/06/30 06:44:42;;;;;;;1.90;0.80;;;;;7.30;101651.00;;;;5087231;28;20115;-77
2021/06/30 06:47:09;;;;;;;5.55;1.13;;;;;7.30;101677.00;;;;5086628;28;20100;-77
2021/06/30 06:49:36;;;;;;;0.93;0.80;;;;;7.30;101640.00;;;;5087312;28;20028;-77
2021/06/30 06:52:02;;;;;;;1.38;0.73;;;;;7.30;101656.00;;;;5090090;28;20024;-75
2021/06/30 06:54:29;;;;;;;4.38;1.23;;;;;7.30;101644.00;;;;5090619;28;20038;-77
2021/06/30 06:56:56;;;;;;;2.67;0.80;;;;;7.20;101654.00;;;;5089952;28;20472;-77
2021/06/30 06:59:22;;;;;;;2.47;0.90;;;;;7.20;101656.00;;;;5089387;28;20586;-77
2021/06/30 07:01:49;;;;;;;1.88;0.90;;;;;7.20;101678.00;;;;5090060;28;20087;-77
2021/06/30 07:04:16;;;;;;;2.53;1.00;;;;;7.20;101647.00;;;;5089694;28;20032;-76
2021/06/30 07:06:42;;;;;;;2.17;0.90;;;;;7.20;101645.00;;;;5089780;28;20032;-77
2021/06/30 07:09:09;;;;;;;3.80;1.00;;;;;7.30;101637.00;;;;5089738;28;20032;-76
2021/06/30 07:11:35;;;;;;;1.25;0.98;;;;;7.30;101636.00;;;;5089321;28;20028;-76
2021/06/30 07:14:02;;;;;;;2.17;0.85;;;;;7.30;101632.00;;;;5089281;28;20028;-76
2021/06/30 07:16:29;;;;;;;4.03;1.02;;;;;7.30;101629.00;;;;5089965;28;20023;-77
2021/06/30 07:18:55;;;;;;;2.63;1.00;;;;;7.30;101662.00;;;;5090194;28;20024;-76
2021/06/30 07:21:22;;;;;;;4.35;1.08;;;;;7.30;101648.00;;;;5089837;28;20036;-77
2021/06/30 07:23:48;;;;;;;2.25;0.93;;;;;7.20;101639.00;;;;5088931;28;20028;-77
2021/06/30 07:26:16;;;;;;;0.70;0.70;;;;;7.20;101654.00;;;;5089366;28;20395;-76
2021/06/30 07:28:44;;;;;;;2.83;0.75;;;;;7.10;101630.00;;;;5089020;28;20443;-75
2021/06/30 07:31:10;;;;;;;1.67;1.08;;;;;7.10;101657.00;;;;5089576;28;20043;-76
2021/06/30 07:33:37;;;;;;;2.15;1.00;;;;;7.10;101570.00;;;;5088960;28;20571;-75
2021/06/30 07:36:05;;;;;;;3.10;1.00;;;;;7.10;101657.00;;;;5089150;28;20030;-76
2021/06/30 07:38:31;;;;;;;2.95;1.35;;;;;7.10;101622.00;;;;5088959;28;20095;-77
2021/06/30 07:40:58;;;;;;;0.98;0.80;;;;;7.10;101652.00;;;;5089232;28;20114;-77
2021/06/30 07:43:24;;;;;;;1.13;0.82;;;;;7.10;101645.00;;;;5089231;28;20024;-77
2021/06/30 07:45:51;;;;;;;1.48;0.88;;;;;7.10;101627.00;;;;5089208;28;20036;-76
2021/06/30 07:48:18;;;;;;;1.83;1.00;;;;;7.00;101643.00;;;;5089418;28;20028;-77
2021/06/30 07:50:44;;;;;;;1.83;1.00;;;;;7.00;101643.00;;;;5089276;28;20027;-77
2021/06/30 07:53:11;;;;;;;2.65;1.23;;;;;7.00;101641.00;;;;5089107;28;20036;-77
2021/06/30 07:55:38;;;;;;;2.75;0.80;;;;;6.90;101672.00;;;;5089381;28;20031;-76
2021/06/30 07:58:04;;;;;;;2.30;1.00;;;;;6.90;101673.00;;;;5088815;28;20589;-77
2021/06/30 08:00:31;;;;;;;1.95;0.82;;;;;6.80;101660.00;;;;5088596;28;20048;-77
2021/06/30 08:02:57;;;;;;;2.80;1.20;;;;;6.80;101683.00;;;;5088824;28;20035;-77
2021/06/30 08:05:24;;;;;;;1.88;1.08;;;;;6.70;101650.00;;;;5088433;28;20028;-77
2021/06/30 08:07:50;;;;;;;1.02;0.82;;;;;6.70;101649.00;;;;5088920;28;20139;-76
2021/06/30 08:10:17;;;;;;;4.03;1.20;;;;;6.70;101640.00;;;;5088595;28;20035;-76
2021/06/30 08:12:43;;;;;;;4.50;1.20;;;;;6.70;101674.00;;;;5088954;28;20036;-76
2021/06/30 08:15:11;;;;;;;5.53;1.15;;;;;6.70;101660.00;;;;5088997;28;20032;-77
2021/06/30 08:17:39;;;;;;;2.22;1.20;;;;;6.60;101660.00;;;;5088469;28;20400;-76
2021/06/30 08:20:06;;;;;;;2.75;1.25;;;;;6.60;101681.00;;;;5088439;28;20050;-77
2021/06/30 08:22:33;;;;;;;3.03;1.48;;;;;6.60;101681.00;;;;5088536;28;20524;-77
2021/06/30 08:25:00;;;;;;;2.75;1.70;;;;;6.60;101694.00;;;;5088156;28;20078;-77
2021/06/30 08:27:26;;;;;;;2.65;1.95;;;;;6.60;101679.00;;;;5088086;28;20402;-77
2021/06/30 08:29:54;;;;;;;4.38;2.10;;;;;6.60;101676.00;;;;5088262;28;20042;-77
2021/06/30 08:32:24;;;;;;;8.32;2.30;;;;;6.60;101706.00;;;;5087962;28;20032;-77
2021/06/30 08:34:51;;;;;;;4.03;1.88;;;;;6.50;101683.00;;;;5088221;28;20036;-76
2021/06/30 08:37:20;;;;;;;7.13;2.03;;;;;6.60;101679.00;;;;5088077;28;20039;-77
2021/06/30 08:39:47;;;;;;;4.07;2.03;;;;;6.60;101686.00;;;;5087582;28;20402;-77
2021/06/30 08:42:19;;;;;;;3.13;1.70;;;;;6.50;101696.00;;;;5088479;28;20032;-77
2021/06/30 08:44:45;;;;;;;5.15;2.40;;;;;6.60;101669.00;;;;5087752;28;20440;-76
2021/06/30 08:47:13;;;;;;;4.70;2.15;;;;;6.60;101722.00;;;;5087407;28;20048;-77
2021/06/30 08:49:42;;;;;;;2.47;1.52;;;;;6.50;101721.00;;;;5087609;28;20035;-78
2021/06/30 08:52:11;;;;;;;4.57;1.95;;;;;6.60;101709.00;;;;5087720;28;20028;-77
2021/06/30 08:54:42;;;;;;;6.50;1.85;;;;;6.60;101723.00;;;;5088068;28;20028;-77
2021/06/30 08:57:12;;;;;;;4.65;1.50;;;;;6.50;101685.00;;;;5087557;28;20456;-77
2021/06/30 08:59:39;;;;;;;4.10;1.90;;;;;6.50;101700.00;;;;5087259;28;20055;-76
2021/06/30 09:02:05;;;;;;;5.60;1.80;;;;;6.50;101713.00;;;;5087821;28;20028;-78
2021/06/30 09:04:33;;;;;;;4.40;2.33;;;;;6.50;101732.00;;;;5086932;28;20072;-78
2021/06/30 09:07:00;;;;;;;7.75;2.17;;;;;6.50;101704.00;;;;5087760;28;20020;-77
2021/06/30 09:09:26;;;;;;;2.95;2.05;;;;;6.50;101732.00;;;;5088262;28;20028;-77
2021/06/30 09:11:55;;;;;;;7.25;2.10;;;;;6.50;101731.00;;;;5087029;28;20506;-77
2021/06/30 09:14:23;;;;;;;5.15;2.63;;;;;6.60;101742.00;;;;5086481;28;20031;-77
2021/06/30 09:17:06;;;;;;;6.20;2.35;;;;;6.50;101711.00;;;;5087663;28;20054;-78
2021/06/30 09:19:56;;;;;;;7.68;2.47;;;;;6.50;101724.00;;;;5086514;28;20093;-78
2021/06/30 09:22:26;;;;;;;7.53;2.53;;;;;6.50;101754.00;;;;5087165;28;20027;-78
2021/06/30 09:24:54;;;;;;;6.32;2.20;;;;;6.60;101763.00;;;;5086816;28;20482;-78
2021/06/30 09:27:44;;;;;;;4.80;1.95;;;;;6.60;101746.00;;;;5087545;28;20081;-79
2021/06/30 09:30:13;;;;;;;4.05;2.17;;;;;6.60;101779.00;;;;5087093;28;20023;-78
2021/06/30 09:33:17;;;;;;;4.43;2.40;;;;;6.60;101779.00;;;;5087203;28;20082;-80
2021/06/30 09:35:44;;;;;;;2.72;2.10;;;;;6.60;101768.00;;;;4985709;28;20042;-79
2021/06/30 09:38:33;;;;;;;6.35;2.10;;;;;6.60;101777.00;;;;4985224;28;20034;-79
2021/06/30 09:41:01;;;;;;;5.10;2.20;;;;;6.60;101776.00;;;;5049615;28;20507;-78
2021/06/30 09:43:33;;;;;;;4.78;2.30;;;;;6.60;101761.00;;;;5086651;28;20038;-80
2021/06/30 09:46:02;;;;;;;4.65;1.85;;;;;6.60;101768.00;;;;5086951;28;20574;-79
2021/06/30 09:48:34;;;;;;;9.05;3.42;;;;;6.60;101784.00;;;;5086738;28;20039;-78
2021/06/30 09:51:05;;;;;;;5.82;2.50;;;;;6.60;101795.00;;;;5086784;28;20340;-78
2021/06/30 09:53:39;;;;;;;6.97;2.30;;;;;6.60;101800.00;;;;5086935;28;20035;-79
2021/06/30 09:56:35;;;;;;;17.33;9.05;;;;;6.60;101785.00;;;;5086513;28;20329;-78
2021/06/30 09:59:21;;;;;;;5.22;2.65;;;;;6.60;101788.00;;;;5086786;28;20059;-79
2021/06/30 10:02:22;;;;;;;6.97;2.90;;;;;6.60;101806.00;;;;5085689;28;20028;-78
2021/06/30 10:04:57;;;;;;;2.70;2.17;;;;;6.60;101817.00;;;;5024310;28;20043;-80
2021/06/30 10:07:25;;;;;;;8.82;2.78;;;;;6.60;101777.00;;;;5085254;28;20032;-79
2021/06/30 10:09:59;;;;;;;4.28;2.55;;;;;6.60;101820.00;;;;5085832;28;20089;-79
2021/06/30 10:12:28;;;;;;;8.88;3.08;;;;;6.60;101804.00;;;;5086591;28;20028;-80
2021/06/30 10:14:55;;;;;;;7.78;3.10;;;;;6.60;101826.00;;;;5086310;28;20037;-80
2021/06/30 10:17:23;;;;;;;6.28;2.90;;;;;6.60;101823.00;;;;5086742;28;20036;-79
2021/06/30 10:19:51;;;;;;;4.85;3.38;;;;;6.60;101815.00;;;;5086417;28;20066;-79
2021/06/30 10:22:20;;;;;;;10.88;2.70;;;;;6.60;101828.00;;;;5086634;28;20028;-78
2021/06/30 10:24:47;;;;;;;7.65;3.60;;;;;6.70;101815.00;;;;5089287;28;20028;-78
2021/06/30 10:27:15;;;;;;;6.50;3.22;;;;;6.70;101840.00;;;;5090629;28;20054;-78
2021/06/30 10:29:45;;;;;;;5.93;2.90;;;;;6.70;101823.00;;;;5090416;28;20530;-79
2021/06/30 10:32:15;;;;;;;6.82;3.85;;;;;6.60;101827.00;;;;5090741;28;20032;-79
2021/06/30 10:34:53;;;;;;;4.72;3.17;;;;;6.60;101845.00;;;;5090674;28;20028;-77
2021/06/30 10:37:26;;;;;;;9.18;3.80;;;;;6.70;101842.00;;;;5090252;28;20024;-79
2021/06/30 10:39:57;;;;;;;4.97;2.60;;;;;6.70;101852.00;;;;5090395;28;20077;-81
2021/06/30 10:42:35;;;;;;;4.97;2.70;;;;;6.70;101850.00;;;;5090697;28;20039;-80
2021/06/30 10:45:17;;;;;;;17.80;12.00;;;;;6.70;101829.00;;;;5089730;28;20040;-80
2021/06/30 10:48:11;;;;;;;7.53;3.13;;;;;6.70;101855.00;;;;5090130;28;20451;-81
2021/06/30 10:50:55;;;;;;;6.55;2.53;;;;;6.70;101841.00;;;;5090786;28;20034;-80
2021/06/30 10:53:27;;;;;;;5.30;2.83;;;;;6.70;101865.00;;;;5090579;28;20040;-80
2021/06/30 10:55:58;;;;;;;5.70;3.10;;;;;6.70;101849.00;;;;5090296;28;20026;-80
2021/06/30 10:58:27;;;;;;;6.78;2.80;;;;;6.70;101852.00;;;;5089240;28;20443;-80
2021/06/30 11:01:07;;;;;;;3.20;2.58;;;;;6.70;101863.00;;;;5089840;28;20036;-80
2021/06/30 11:03:50;;;;;;;6.85;2.92;;;;;6.70;101846.00;;;;5090073;28;20118;-80
2021/06/30 11:06:24;;;;;;;6.28;2.80;;;;;6.80;101870.00;;;;5089955;28;20036;-80
2021/06/30 11:09:01;;;;;;;10.85;3.92;;;;;6.80;101875.00;;;;5089991;28;20032;-79
2021/06/30 11:11:34;;;;;;;6.30;3.83;;;;;6.80;101895.00;;;;5089924;28;20626;-79
2021/06/30 11:14:09;;;;;;;6.85;3.00;;;;;6.80;101864.00;;;;5090489;28;20593;-80
2021/06/30 11:16:38;;;;;;;8.02;5.07;;;;;6.90;101891.00;;;;5089983;28;20020;-79
2021/06/30 11:19:08;;;;;;;5.82;2.78;;;;;6.90;101864.00;;;;5089484;28;20028;-80
2021/06/30 11:21:58;;;;;;;7.68;3.38;;;;;6.90;101895.00;;;;5089644;28;20036;-79
2021/06/30 11:24:40;;;;;;;10.43;5.85;;;;;7.00;101899.00;;;;5089505;28;20020;-79
2021/06/30 11:27:13;;;;;;;6.97;3.70;;;;;6.90;101897.00;;;;5071403;28;20028;-79
2021/06/30 11:29:46;;;;;;;10.05;3.65;;;;;7.00;101894.00;;;;5089072;28;20038;-80
2021/06/30 11:32:46;;;;;;;6.93;3.78;;;;;7.00;101897.00;;;;5089436;28;20091;-79
2021/06/30 11:35:27;;;;;;;8.35;3.75;;;;;7.00;101916.00;;;;5034241;28;20550;-79
2021/06/30 11:38:04;;;;;;;6.80;4.60;;;;;7.00;101891.00;;;;5089278;28;20024;-79
2021/06/30 11:40:34;;;;;;;9.10;3.60;;;;;7.00;101893.00;;;;5089862;28;20024;-79
2021/06/30 11:43:09;;;;;;;9.88;4.18;;;;;7.10;101883.00;;;;5089151;28;20070;-79
2021/06/30 11:45:36;;;;;;;7.38;3.72;;;;;7.10;101915.00;;;;5070818;28;20059;-79
2021/06/30 11:48:05;;;;;;;5.57;4.43;;;;;7.10;101929.00;;;;5088644;28;20035;-81
2021/06/30 11:50:46;;;;;;;10.98;4.68;;;;;7.20;101902.00;;;;5088672;28;20048;-78
2021/06/30 11:53:13;;;;;;;11.07;4.60;;;;;7.20;101908.00;;;;5088982;28;20436;-78
2021/06/30 11:55:41;;;;;;;7.03;4.18;;;;;7.10;101913.00;;;;5088838;28;20115;-81
2021/06/30 11:58:09;;;;;;;7.15;4.40;;;;;7.20;101905.00;;;;5088779;28;20529;-79
2021/06/30 12:00:43;;;;;;;9.20;5.10;;;;;7.30;101913.00;;;;5088426;28;20130;-83
2021/06/30 12:03:10;;;;;;;12.05;6.40;;;;;7.40;101933.00;;;;5088344;28;20020;-79
2021/06/30 12:05:41;;;;;;;8.55;3.75;;;;;7.40;101906.00;;;;5088559;28;20441;-79
2021/06/30 12:08:09;;;;;;;5.35;4.22;;;;;7.30;101894.00;;;;5089130;28;20414;-80
2021/06/30 12:10:38;;;;;;;11.07;4.88;;;;;7.30;101901.00;;;;5088802;28;20030;-80
2021/06/30 12:13:13;;;;;;;6.97;3.65;;;;;7.30;101937.00;;;;5088670;28;20031;-78
2021/06/30 12:15:43;;;;;;;8.18;4.45;;;;;7.30;101932.00;;;;5089058;28;20028;-78
2021/06/30 12:18:10;;;;;;;11.60;4.97;;;;;7.40;101948.00;;;;5088794;28;20024;-78
2021/06/30 12:20:37;;;;;;;8.18;5.07;;;;;7.40;101940.00;;;;5090311;28;20051;-77
2021/06/30 12:23:06;;;;;;;8.82;5.20;;;;;7.40;101951.00;;;;5103607;28;20023;-78
2021/06/30 12:25:34;;;;;;;11.15;5.57;;;;;7.50;101930.00;;;;5112269;28;20047;-80